sensor_id;sensor_type;location;lat;lon;timestamp;P1;durP1;ratioP1;P2;durP2;ratioP2
6255;SDS011;3161;48.794;9.784;2024-01-30T00:02:25;14.80;;;8.10;;
6255;SDS011;3161;48.794;9.784;2024-01-30T00:04:52;11.27;;;7.23;;
6255;SDS011;3161;48.794;9.784;2024-01-30T00:07:20;14.17;;;7.50;;
6255;SDS011;3161;48.794;9.784;2024-01-30T00:09:47;12.93;;;7.30;;
6255;SDS011;3161;48.794;9.784;2024-01-30T00:12:15;17.13;;;7.43;;
6255;SDS011;3161;48.794;9.784;2024-01-30T00:14:42;15.20;;;7.57;;
6255;SDS011;3161;48.794;9.784;2024-01-30T00:17:10;14.63;;;7.70;;
6255;SDS011;3161;48.794;9.784;2024-01-30T00:19:37;11.33;;;7.50;;
6255;SDS011;3161;48.794;9.784;2024-01-30T00:22:05;15.40;;;7.53;;
6255;SDS011;3161;48.794;9.784;2024-01-30T00:24:33;19.70;;;7.53;;
6255;SDS011;3161;48.794;9.784;2024-01-30T00:27:09;16.63;;;7.60;;
6255;SDS011;3161;48.794;9.784;2024-01-30T00:29:33;14.90;;;7.83;;
6255;SDS011;3161;48.794;9.784;2024-01-30T00:32:00;12.67;;;7.03;;
6255;SDS011;3161;48.794;9.784;2024-01-30T00:34:28;14.03;;;6.73;;
6255;SDS011;3161;48.794;9.784;2024-01-30T00:36:55;12.23;;;7.13;;
6255;SDS011;3161;48.794;9.784;2024-01-30T00:39:23;15.50;;;7.63;;
6255;SDS011;3161;48.794;9.784;2024-01-30T00:41:51;15.30;;;8.38;;
6255;SDS011;3161;48.794;9.784;2024-01-30T00:44:18;11.77;;;7.57;;
6255;SDS011;3161;48.794;9.784;2024-01-30T00:46:46;17.57;;;7.00;;
6255;SDS011;3161;48.794;9.784;2024-01-30T00:49:13;13.07;;;6.90;;
6255;SDS011;3161;48.794;9.784;2024-01-30T00:51:41;19.60;;;8.53;;
6255;SDS011;3161;48.794;9.784;2024-01-30T00:54:08;12.57;;;6.67;;
6255;SDS011;3161;48.794;9.784;2024-01-30T00:56:36;14.53;;;7.83;;
6255;SDS011;3161;48.794;9.784;2024-01-30T00:59:03;14.73;;;8.17;;
6255;SDS011;3161;48.794;9.784;2024-01-30T01:01:31;11.03;;;7.30;;
6255;SDS011;3161;48.794;9.784;2024-01-30T01:03:58;17.03;;;7.23;;
6255;SDS011;3161;48.794;9.784;2024-01-30T01:06:26;15.20;;;7.13;;
6255;SDS011;3161;48.794;9.784;2024-01-30T01:08:53;13.63;;;6.63;;
6255;SDS011;3161;48.794;9.784;2024-01-30T01:11:21;14.63;;;6.50;;
6255;SDS011;3161;48.794;9.784;2024-01-30T01:13:48;13.57;;;6.47;;
6255;SDS011;3161;48.794;9.784;2024-01-30T01:16:16;11.20;;;6.30;;
6255;SDS011;3161;48.794;9.784;2024-01-30T01:18:43;11.63;;;6.97;;
6255;SDS011;3161;48.794;9.784;2024-01-30T01:21:11;9.87;;;5.70;;
6255;SDS011;3161;48.794;9.784;2024-01-30T01:23:38;12.80;;;5.33;;
6255;SDS011;3161;48.794;9.784;2024-01-30T01:26:07;9.60;;;5.53;;
6255;SDS011;3161;48.794;9.784;2024-01-30T01:28:35;11.33;;;5.93;;
6255;SDS011;3161;48.794;9.784;2024-01-30T01:31:03;10.13;;;6.10;;
6255;SDS011;3161;48.794;9.784;2024-01-30T01:33:35;9.97;;;5.70;;
6255;SDS011;3161;48.794;9.784;2024-01-30T01:36:00;11.70;;;5.97;;
6255;SDS011;3161;48.794;9.784;2024-01-30T01:38:28;12.73;;;6.27;;
6255;SDS011;3161;48.794;9.784;2024-01-30T01:40:56;9.73;;;6.10;;
6255;SDS011;3161;48.794;9.784;2024-01-30T01:43:23;11.27;;;6.33;;
6255;SDS011;3161;48.794;9.784;2024-01-30T01:45:51;17.30;;;6.23;;
6255;SDS011;3161;48.794;9.784;2024-01-30T01:48:18;10.43;;;5.80;;
6255;SDS011;3161;48.794;9.784;2024-01-30T01:50:47;9.33;;;5.67;;
6255;SDS011;3161;48.794;9.784;2024-01-30T01:53:14;10.43;;;6.03;;
6255;SDS011;3161;48.794;9.784;2024-01-30T01:55:43;14.27;;;6.40;;
6255;SDS011;3161;48.794;9.784;2024-01-30T01:58:12;12.57;;;5.97;;
6255;SDS011;3161;48.794;9.784;2024-01-30T02:00:40;10.33;;;6.13;;
6255;SDS011;3161;48.794;9.784;2024-01-30T02:03:10;8.23;;;6.00;;
6255;SDS011;3161;48.794;9.784;2024-01-30T02:05:38;13.77;;;6.20;;
6255;SDS011;3161;48.794;9.784;2024-01-30T02:08:06;12.17;;;5.43;;
6255;SDS011;3161;48.794;9.784;2024-01-30T02:10:35;12.80;;;5.40;;
6255;SDS011;3161;48.794;9.784;2024-01-30T02:13:02;11.07;;;5.87;;
6255;SDS011;3161;48.794;9.784;2024-01-30T02:15:30;16.37;;;6.30;;
6255;SDS011;3161;48.794;9.784;2024-01-30T02:17:58;11.23;;;5.70;;
6255;SDS011;3161;48.794;9.784;2024-01-30T02:20:25;12.70;;;6.40;;
6255;SDS011;3161;48.794;9.784;2024-01-30T02:22:57;9.07;;;5.87;;
6255;SDS011;3161;48.794;9.784;2024-01-30T02:25:40;18.80;;;6.13;;
6255;SDS011;3161;48.794;9.784;2024-01-30T02:28:13;12.33;;;6.80;;
6255;SDS011;3161;48.794;9.784;2024-01-30T02:30:42;14.77;;;5.87;;
6255;SDS011;3161;48.794;9.784;2024-01-30T02:33:10;12.37;;;6.07;;
6255;SDS011;3161;48.794;9.784;2024-01-30T02:35:37;8.23;;;5.70;;
6255;SDS011;3161;48.794;9.784;2024-01-30T02:38:05;7.33;;;5.23;;
6255;SDS011;3161;48.794;9.784;2024-01-30T02:40:33;10.43;;;5.60;;
6255;SDS011;3161;48.794;9.784;2024-01-30T02:43:01;9.60;;;5.93;;
6255;SDS011;3161;48.794;9.784;2024-01-30T02:45:29;10.30;;;5.23;;
6255;SDS011;3161;48.794;9.784;2024-01-30T02:47:57;7.97;;;5.27;;
6255;SDS011;3161;48.794;9.784;2024-01-30T02:50:25;11.47;;;5.83;;
6255;SDS011;3161;48.794;9.784;2024-01-30T02:52:52;10.47;;;5.37;;
6255;SDS011;3161;48.794;9.784;2024-01-30T02:55:20;12.67;;;5.63;;
6255;SDS011;3161;48.794;9.784;2024-01-30T02:57:47;7.00;;;5.30;;
6255;SDS011;3161;48.794;9.784;2024-01-30T03:00:15;10.00;;;6.17;;
6255;SDS011;3161;48.794;9.784;2024-01-30T03:02:42;11.57;;;6.50;;
6255;SDS011;3161;48.794;9.784;2024-01-30T03:05:10;9.50;;;5.10;;
6255;SDS011;3161;48.794;9.784;2024-01-30T03:07:37;10.70;;;6.27;;
6255;SDS011;3161;48.794;9.784;2024-01-30T03:10:05;8.63;;;5.57;;
6255;SDS011;3161;48.794;9.784;2024-01-30T03:12:33;8.97;;;5.77;;
6255;SDS011;3161;48.794;9.784;2024-01-30T03:15:01;13.10;;;5.50;;
6255;SDS011;3161;48.794;9.784;2024-01-30T03:17:28;11.50;;;6.20;;
6255;SDS011;3161;48.794;9.784;2024-01-30T03:19:56;8.93;;;5.87;;
6255;SDS011;3161;48.794;9.784;2024-01-30T03:22:23;10.23;;;5.70;;
6255;SDS011;3161;48.794;9.784;2024-01-30T03:24:51;10.53;;;5.07;;
6255;SDS011;3161;48.794;9.784;2024-01-30T03:27:18;12.13;;;5.77;;
6255;SDS011;3161;48.794;9.784;2024-01-30T03:29:46;8.87;;;5.70;;
6255;SDS011;3161;48.794;9.784;2024-01-30T03:32:13;12.23;;;5.13;;
6255;SDS011;3161;48.794;9.784;2024-01-30T03:34:41;10.27;;;5.23;;
6255;SDS011;3161;48.794;9.784;2024-01-30T03:37:08;8.37;;;5.57;;
6255;SDS011;3161;48.794;9.784;2024-01-30T03:39:36;8.43;;;5.47;;
6255;SDS011;3161;48.794;9.784;2024-01-30T03:42:03;8.30;;;5.63;;
6255;SDS011;3161;48.794;9.784;2024-01-30T03:44:31;16.17;;;6.23;;
6255;SDS011;3161;48.794;9.784;2024-01-30T03:46:58;8.13;;;5.30;;
6255;SDS011;3161;48.794;9.784;2024-01-30T03:49:26;7.13;;;5.13;;
6255;SDS011;3161;48.794;9.784;2024-01-30T03:51:53;10.00;;;5.73;;
6255;SDS011;3161;48.794;9.784;2024-01-30T03:54:21;18.70;;;5.90;;
6255;SDS011;3161;48.794;9.784;2024-01-30T03:56:48;10.10;;;5.63;;
6255;SDS011;3161;48.794;9.784;2024-01-30T03:59:16;14.23;;;5.83;;
6255;SDS011;3161;48.794;9.784;2024-01-30T04:01:46;10.70;;;6.07;;
6255;SDS011;3161;48.794;9.784;2024-01-30T04:04:13;12.90;;;6.70;;
6255;SDS011;3161;48.794;9.784;2024-01-30T04:06:41;11.70;;;6.43;;
6255;SDS011;3161;48.794;9.784;2024-01-30T04:09:08;8.17;;;5.43;;
6255;SDS011;3161;48.794;9.784;2024-01-30T04:11:36;8.40;;;6.03;;
6255;SDS011;3161;48.794;9.784;2024-01-30T04:14:04;14.13;;;6.60;;
6255;SDS011;3161;48.794;9.784;2024-01-30T04:16:32;8.73;;;5.80;;
6255;SDS011;3161;48.794;9.784;2024-01-30T04:18:59;9.83;;;5.53;;
6255;SDS011;3161;48.794;9.784;2024-01-30T04:21:27;8.53;;;5.97;;
6255;SDS011;3161;48.794;9.784;2024-01-30T04:23:54;9.90;;;5.97;;
6255;SDS011;3161;48.794;9.784;2024-01-30T04:26:22;10.30;;;5.83;;
6255;SDS011;3161;48.794;9.784;2024-01-30T04:28:49;8.10;;;5.03;;
6255;SDS011;3161;48.794;9.784;2024-01-30T04:31:17;16.47;;;5.87;;
6255;SDS011;3161;48.794;9.784;2024-01-30T04:33:45;7.90;;;5.63;;
6255;SDS011;3161;48.794;9.784;2024-01-30T04:36:12;10.07;;;6.17;;
6255;SDS011;3161;48.794;9.784;2024-01-30T04:38:40;9.70;;;6.40;;
6255;SDS011;3161;48.794;9.784;2024-01-30T04:41:07;8.10;;;5.93;;
6255;SDS011;3161;48.794;9.784;2024-01-30T04:43:35;13.80;;;5.93;;
6255;SDS011;3161;48.794;9.784;2024-01-30T04:46:02;9.67;;;5.90;;
6255;SDS011;3161;48.794;9.784;2024-01-30T04:48:31;10.47;;;5.53;;
6255;SDS011;3161;48.794;9.784;2024-01-30T04:50:58;10.17;;;5.43;;
6255;SDS011;3161;48.794;9.784;2024-01-30T04:53:27;10.03;;;5.90;;
6255;SDS011;3161;48.794;9.784;2024-01-30T04:55:57;15.27;;;6.20;;
6255;SDS011;3161;48.794;9.784;2024-01-30T04:58:24;14.47;;;6.23;;
6255;SDS011;3161;48.794;9.784;2024-01-30T05:00:52;8.47;;;5.47;;
6255;SDS011;3161;48.794;9.784;2024-01-30T05:03:19;11.13;;;6.20;;
6255;SDS011;3161;48.794;9.784;2024-01-30T05:05:48;8.73;;;5.73;;
6255;SDS011;3161;48.794;9.784;2024-01-30T05:08:16;8.60;;;5.73;;
6255;SDS011;3161;48.794;9.784;2024-01-30T05:10:43;10.77;;;6.50;;
6255;SDS011;3161;48.794;9.784;2024-01-30T05:13:11;10.30;;;5.97;;
6255;SDS011;3161;48.794;9.784;2024-01-30T05:15:39;8.50;;;5.57;;
6255;SDS011;3161;48.794;9.784;2024-01-30T05:18:07;10.97;;;6.53;;
6255;SDS011;3161;48.794;9.784;2024-01-30T05:20:34;10.90;;;6.30;;
6255;SDS011;3161;48.794;9.784;2024-01-30T05:23:02;10.47;;;5.70;;
6255;SDS011;3161;48.794;9.784;2024-01-30T05:25:30;11.50;;;6.77;;
6255;SDS011;3161;48.794;9.784;2024-01-30T05:27:57;8.57;;;6.00;;
6255;SDS011;3161;48.794;9.784;2024-01-30T05:30:25;12.30;;;5.87;;
6255;SDS011;3161;48.794;9.784;2024-01-30T05:32:52;10.20;;;6.37;;
6255;SDS011;3161;48.794;9.784;2024-01-30T05:35:20;8.60;;;5.90;;
6255;SDS011;3161;48.794;9.784;2024-01-30T05:37:50;10.13;;;6.57;;
6255;SDS011;3161;48.794;9.784;2024-01-30T05:40:18;9.77;;;6.20;;
6255;SDS011;3161;48.794;9.784;2024-01-30T05:42:45;11.90;;;6.60;;
6255;SDS011;3161;48.794;9.784;2024-01-30T05:45:14;12.83;;;7.07;;
6255;SDS011;3161;48.794;9.784;2024-01-30T05:47:41;8.33;;;5.93;;
6255;SDS011;3161;48.794;9.784;2024-01-30T05:50:09;10.87;;;6.77;;
6255;SDS011;3161;48.794;9.784;2024-01-30T05:52:37;11.00;;;6.40;;
6255;SDS011;3161;48.794;9.784;2024-01-30T05:55:05;12.17;;;6.17;;
6255;SDS011;3161;48.794;9.784;2024-01-30T05:57:32;9.77;;;6.23;;
6255;SDS011;3161;48.794;9.784;2024-01-30T06:00:00;9.73;;;5.77;;
6255;SDS011;3161;48.794;9.784;2024-01-30T06:02:28;10.47;;;6.40;;
6255;SDS011;3161;48.794;9.784;2024-01-30T06:04:55;9.43;;;6.23;;
6255;SDS011;3161;48.794;9.784;2024-01-30T06:07:23;9.43;;;5.97;;
6255;SDS011;3161;48.794;9.784;2024-01-30T06:09:50;11.57;;;6.27;;
6255;SDS011;3161;48.794;9.784;2024-01-30T06:12:18;13.77;;;7.00;;
6255;SDS011;3161;48.794;9.784;2024-01-30T06:14:45;10.67;;;6.40;;
6255;SDS011;3161;48.794;9.784;2024-01-30T06:17:13;11.03;;;6.53;;
6255;SDS011;3161;48.794;9.784;2024-01-30T06:19:40;8.67;;;5.83;;
6255;SDS011;3161;48.794;9.784;2024-01-30T06:22:08;15.03;;;7.00;;
6255;SDS011;3161;48.794;9.784;2024-01-30T06:24:35;10.63;;;5.87;;
6255;SDS011;3161;48.794;9.784;2024-01-30T06:27:03;10.73;;;6.23;;
6255;SDS011;3161;48.794;9.784;2024-01-30T06:29:31;9.73;;;6.03;;
6255;SDS011;3161;48.794;9.784;2024-01-30T06:31:59;19.30;;;6.33;;
6255;SDS011;3161;48.794;9.784;2024-01-30T06:34:26;12.37;;;6.37;;
6255;SDS011;3161;48.794;9.784;2024-01-30T06:36:54;11.53;;;6.00;;
6255;SDS011;3161;48.794;9.784;2024-01-30T06:39:21;8.87;;;5.83;;
6255;SDS011;3161;48.794;9.784;2024-01-30T06:41:49;13.50;;;6.33;;
6255;SDS011;3161;48.794;9.784;2024-01-30T06:44:16;10.00;;;6.47;;
6255;SDS011;3161;48.794;9.784;2024-01-30T06:46:44;12.67;;;6.23;;
6255;SDS011;3161;48.794;9.784;2024-01-30T06:49:11;9.43;;;6.20;;
6255;SDS011;3161;48.794;9.784;2024-01-30T06:51:39;9.37;;;6.10;;
6255;SDS011;3161;48.794;9.784;2024-01-30T06:54:06;7.37;;;5.63;;
6255;SDS011;3161;48.794;9.784;2024-01-30T06:56:34;8.27;;;5.53;;
6255;SDS011;3161;48.794;9.784;2024-01-30T06:59:02;12.43;;;6.23;;
6255;SDS011;3161;48.794;9.784;2024-01-30T07:01:29;7.73;;;5.77;;
6255;SDS011;3161;48.794;9.784;2024-01-30T07:03:57;10.57;;;6.13;;
6255;SDS011;3161;48.794;9.784;2024-01-30T07:06:24;10.13;;;6.10;;
6255;SDS011;3161;48.794;9.784;2024-01-30T07:08:52;10.03;;;6.20;;
6255;SDS011;3161;48.794;9.784;2024-01-30T07:11:20;9.73;;;6.53;;
6255;SDS011;3161;48.794;9.784;2024-01-30T07:13:52;11.53;;;6.63;;
6255;SDS011;3161;48.794;9.784;2024-01-30T07:16:21;9.37;;;6.13;;
6255;SDS011;3161;48.794;9.784;2024-01-30T07:18:49;10.63;;;6.67;;
6255;SDS011;3161;48.794;9.784;2024-01-30T07:21:16;8.67;;;6.23;;
6255;SDS011;3161;48.794;9.784;2024-01-30T07:23:44;9.47;;;6.20;;
6255;SDS011;3161;48.794;9.784;2024-01-30T07:26:11;9.03;;;6.20;;
6255;SDS011;3161;48.794;9.784;2024-01-30T07:28:39;9.53;;;6.17;;
6255;SDS011;3161;48.794;9.784;2024-01-30T07:31:06;9.63;;;5.87;;
6255;SDS011;3161;48.794;9.784;2024-01-30T07:33:34;8.37;;;5.80;;
6255;SDS011;3161;48.794;9.784;2024-01-30T07:36:01;8.97;;;5.57;;
6255;SDS011;3161;48.794;9.784;2024-01-30T07:38:31;11.30;;;6.37;;
6255;SDS011;3161;48.794;9.784;2024-01-30T07:40:58;12.83;;;7.57;;
6255;SDS011;3161;48.794;9.784;2024-01-30T07:43:26;13.13;;;8.07;;
6255;SDS011;3161;48.794;9.784;2024-01-30T07:45:54;15.43;;;8.03;;
6255;SDS011;3161;48.794;9.784;2024-01-30T07:48:21;13.27;;;7.27;;
6255;SDS011;3161;48.794;9.784;2024-01-30T07:50:49;10.60;;;6.03;;
6255;SDS011;3161;48.794;9.784;2024-01-30T07:53:17;9.33;;;7.00;;
6255;SDS011;3161;48.794;9.784;2024-01-30T07:55:44;11.20;;;6.80;;
6255;SDS011;3161;48.794;9.784;2024-01-30T07:58:12;14.37;;;6.23;;
6255;SDS011;3161;48.794;9.784;2024-01-30T08:00:40;12.23;;;7.17;;
6255;SDS011;3161;48.794;9.784;2024-01-30T08:03:07;9.60;;;6.47;;
6255;SDS011;3161;48.794;9.784;2024-01-30T08:05:35;12.00;;;6.37;;
6255;SDS011;3161;48.794;9.784;2024-01-30T08:08:03;15.33;;;8.10;;
6255;SDS011;3161;48.794;9.784;2024-01-30T08:10:31;13.13;;;7.17;;
6255;SDS011;3161;48.794;9.784;2024-01-30T08:12:59;17.03;;;8.17;;
6255;SDS011;3161;48.794;9.784;2024-01-30T08:15:27;13.53;;;8.10;;
6255;SDS011;3161;48.794;9.784;2024-01-30T08:17:54;13.40;;;7.83;;
6255;SDS011;3161;48.794;9.784;2024-01-30T08:20:24;11.87;;;7.67;;
6255;SDS011;3161;48.794;9.784;2024-01-30T08:22:52;12.10;;;7.47;;
6255;SDS011;3161;48.794;9.784;2024-01-30T08:25:20;11.83;;;7.70;;
6255;SDS011;3161;48.794;9.784;2024-01-30T08:27:47;11.80;;;7.23;;
6255;SDS011;3161;48.794;9.784;2024-01-30T08:30:15;11.00;;;7.17;;
6255;SDS011;3161;48.794;9.784;2024-01-30T08:32:42;14.23;;;7.97;;
6255;SDS011;3161;48.794;9.784;2024-01-30T08:35:10;17.73;;;8.13;;
6255;SDS011;3161;48.794;9.784;2024-01-30T08:37:39;14.70;;;7.17;;
6255;SDS011;3161;48.794;9.784;2024-01-30T08:40:07;13.07;;;7.43;;
6255;SDS011;3161;48.794;9.784;2024-01-30T08:42:46;13.73;;;7.00;;
6255;SDS011;3161;48.794;9.784;2024-01-30T08:45:10;11.70;;;6.83;;
6255;SDS011;3161;48.794;9.784;2024-01-30T08:47:38;10.10;;;6.50;;
6255;SDS011;3161;48.794;9.784;2024-01-30T08:50:07;14.80;;;7.83;;
6255;SDS011;3161;48.794;9.784;2024-01-30T08:52:35;12.40;;;7.67;;
6255;SDS011;3161;48.794;9.784;2024-01-30T08:55:02;11.07;;;6.87;;
6255;SDS011;3161;48.794;9.784;2024-01-30T08:57:30;15.53;;;7.87;;
6255;SDS011;3161;48.794;9.784;2024-01-30T08:59:58;8.60;;;6.77;;
6255;SDS011;3161;48.794;9.784;2024-01-30T09:02:26;10.60;;;6.97;;
6255;SDS011;3161;48.794;9.784;2024-01-30T09:04:53;12.00;;;7.80;;
6255;SDS011;3161;48.794;9.784;2024-01-30T09:07:21;13.03;;;7.30;;
6255;SDS011;3161;48.794;9.784;2024-01-30T09:09:48;12.90;;;6.93;;
6255;SDS011;3161;48.794;9.784;2024-01-30T09:12:16;11.27;;;6.87;;
6255;SDS011;3161;48.794;9.784;2024-01-30T09:14:44;12.57;;;7.57;;
6255;SDS011;3161;48.794;9.784;2024-01-30T09:17:11;9.97;;;6.70;;
6255;SDS011;3161;48.794;9.784;2024-01-30T09:19:39;10.97;;;6.13;;
6255;SDS011;3161;48.794;9.784;2024-01-30T09:22:07;13.27;;;7.07;;
6255;SDS011;3161;48.794;9.784;2024-01-30T09:24:35;8.93;;;6.47;;
6255;SDS011;3161;48.794;9.784;2024-01-30T09:27:02;10.17;;;6.87;;
6255;SDS011;3161;48.794;9.784;2024-01-30T09:29:30;9.73;;;7.00;;
6255;SDS011;3161;48.794;9.784;2024-01-30T09:32:00;10.40;;;7.30;;
6255;SDS011;3161;48.794;9.784;2024-01-30T09:34:27;11.87;;;7.50;;
6255;SDS011;3161;48.794;9.784;2024-01-30T09:36:55;14.53;;;7.00;;
6255;SDS011;3161;48.794;9.784;2024-01-30T09:39:22;11.27;;;6.77;;
6255;SDS011;3161;48.794;9.784;2024-01-30T09:41:55;12.80;;;6.77;;
6255;SDS011;3161;48.794;9.784;2024-01-30T09:44:39;12.27;;;7.07;;
6255;SDS011;3161;48.794;9.784;2024-01-30T09:47:09;13.20;;;7.83;;
6255;SDS011;3161;48.794;9.784;2024-01-30T09:49:38;13.73;;;7.70;;
6255;SDS011;3161;48.794;9.784;2024-01-30T09:52:05;14.93;;;8.10;;
6255;SDS011;3161;48.794;9.784;2024-01-30T09:54:34;12.60;;;6.97;;
6255;SDS011;3161;48.794;9.784;2024-01-30T09:57:02;9.13;;;6.87;;
6255;SDS011;3161;48.794;9.784;2024-01-30T09:59:31;12.03;;;6.73;;
6255;SDS011;3161;48.794;9.784;2024-01-30T10:01:59;12.27;;;6.57;;
6255;SDS011;3161;48.794;9.784;2024-01-30T10:04:26;10.67;;;6.70;;
6255;SDS011;3161;48.794;9.784;2024-01-30T10:06:54;9.17;;;6.20;;
6255;SDS011;3161;48.794;9.784;2024-01-30T10:09:21;11.20;;;6.80;;
6255;SDS011;3161;48.794;9.784;2024-01-30T10:11:49;22.17;;;10.87;;
6255;SDS011;3161;48.794;9.784;2024-01-30T10:14:18;42.57;;;16.83;;
6255;SDS011;3161;48.794;9.784;2024-01-30T10:16:46;33.07;;;14.00;;
6255;SDS011;3161;48.794;9.784;2024-01-30T10:19:14;23.37;;;10.00;;
6255;SDS011;3161;48.794;9.784;2024-01-30T10:21:41;36.07;;;15.80;;
6255;SDS011;3161;48.794;9.784;2024-01-30T10:24:09;40.97;;;17.73;;
6255;SDS011;3161;48.794;9.784;2024-01-30T10:26:39;59.50;;;26.47;;
6255;SDS011;3161;48.794;9.784;2024-01-30T10:29:06;54.90;;;26.83;;
6255;SDS011;3161;48.794;9.784;2024-01-30T10:31:34;57.10;;;29.07;;
6255;SDS011;3161;48.794;9.784;2024-01-30T10:34:01;49.90;;;25.63;;
6255;SDS011;3161;48.794;9.784;2024-01-30T10:36:29;41.70;;;19.47;;
6255;SDS011;3161;48.794;9.784;2024-01-30T10:38:59;30.90;;;16.17;;
6255;SDS011;3161;48.794;9.784;2024-01-30T10:41:27;22.17;;;10.57;;
6255;SDS011;3161;48.794;9.784;2024-01-30T10:44:02;16.57;;;9.17;;
6255;SDS011;3161;48.794;9.784;2024-01-30T10:46:38;14.03;;;8.17;;
6255;SDS011;3161;48.794;9.784;2024-01-30T10:49:07;12.63;;;7.47;;
6255;SDS011;3161;48.794;9.784;2024-01-30T10:51:36;12.53;;;6.83;;
6255;SDS011;3161;48.794;9.784;2024-01-30T10:54:05;12.10;;;6.43;;
6255;SDS011;3161;48.794;9.784;2024-01-30T10:56:34;12.47;;;6.60;;
6255;SDS011;3161;48.794;9.784;2024-01-30T10:59:03;11.80;;;7.10;;
6255;SDS011;3161;48.794;9.784;2024-01-30T11:01:31;10.60;;;7.00;;
6255;SDS011;3161;48.794;9.784;2024-01-30T11:03:59;9.37;;;6.37;;
6255;SDS011;3161;48.794;9.784;2024-01-30T11:06:27;8.30;;;5.53;;
6255;SDS011;3161;48.794;9.784;2024-01-30T11:09:05;7.23;;;5.80;;
6255;SDS011;3161;48.794;9.784;2024-01-30T11:11:31;9.97;;;6.23;;
6255;SDS011;3161;48.794;9.784;2024-01-30T11:14:01;11.93;;;6.93;;
6255;SDS011;3161;48.794;9.784;2024-01-30T11:16:30;11.37;;;7.00;;
6255;SDS011;3161;48.794;9.784;2024-01-30T11:19:00;14.07;;;7.07;;
6255;SDS011;3161;48.794;9.784;2024-01-30T11:21:28;7.80;;;5.87;;
6255;SDS011;3161;48.794;9.784;2024-01-30T11:23:55;11.30;;;6.27;;
6255;SDS011;3161;48.794;9.784;2024-01-30T11:26:27;11.30;;;6.77;;
6255;SDS011;3161;48.794;9.784;2024-01-30T11:28:57;11.50;;;7.10;;
6255;SDS011;3161;48.794;9.784;2024-01-30T11:31:25;13.87;;;7.70;;
6255;SDS011;3161;48.794;9.784;2024-01-30T11:33:53;12.30;;;7.57;;
6255;SDS011;3161;48.794;9.784;2024-01-30T11:36:21;11.83;;;6.37;;
6255;SDS011;3161;48.794;9.784;2024-01-30T11:38:52;12.50;;;7.57;;
6255;SDS011;3161;48.794;9.784;2024-01-30T11:41:20;16.00;;;8.30;;
6255;SDS011;3161;48.794;9.784;2024-01-30T11:43:51;15.37;;;9.10;;
6255;SDS011;3161;48.794;9.784;2024-01-30T11:46:19;15.93;;;7.87;;
6255;SDS011;3161;48.794;9.784;2024-01-30T11:48:47;17.70;;;8.43;;
6255;SDS011;3161;48.794;9.784;2024-01-30T11:51:15;15.13;;;8.23;;
6255;SDS011;3161;48.794;9.784;2024-01-30T11:53:44;16.57;;;7.90;;
6255;SDS011;3161;48.794;9.784;2024-01-30T11:56:13;12.30;;;7.97;;
6255;SDS011;3161;48.794;9.784;2024-01-30T11:58:45;13.90;;;8.13;;
6255;SDS011;3161;48.794;9.784;2024-01-30T12:01:10;14.67;;;8.23;;
6255;SDS011;3161;48.794;9.784;2024-01-30T12:03:38;15.93;;;8.37;;
6255;SDS011;3161;48.794;9.784;2024-01-30T12:06:06;15.83;;;7.60;;
6255;SDS011;3161;48.794;9.784;2024-01-30T12:08:34;10.57;;;7.53;;
6255;SDS011;3161;48.794;9.784;2024-01-30T12:11:02;10.60;;;7.57;;
6255;SDS011;3161;48.794;9.784;2024-01-30T12:13:31;13.97;;;7.50;;
6255;SDS011;3161;48.794;9.784;2024-01-30T12:15:59;13.97;;;8.37;;
6255;SDS011;3161;48.794;9.784;2024-01-30T12:18:27;13.20;;;7.73;;
6255;SDS011;3161;48.794;9.784;2024-01-30T12:21:02;16.53;;;8.33;;
6255;SDS011;3161;48.794;9.784;2024-01-30T12:23:27;12.47;;;7.20;;
6255;SDS011;3161;48.794;9.784;2024-01-30T12:25:55;12.73;;;7.40;;
6255;SDS011;3161;48.794;9.784;2024-01-30T12:28:22;13.27;;;7.07;;
6255;SDS011;3161;48.794;9.784;2024-01-30T12:30:50;12.60;;;7.27;;
6255;SDS011;3161;48.794;9.784;2024-01-30T12:33:19;14.53;;;8.40;;
6255;SDS011;3161;48.794;9.784;2024-01-30T12:35:47;20.13;;;10.03;;
6255;SDS011;3161;48.794;9.784;2024-01-30T12:38:15;38.97;;;20.93;;
6255;SDS011;3161;48.794;9.784;2024-01-30T12:40:42;42.77;;;21.07;;
6255;SDS011;3161;48.794;9.784;2024-01-30T12:43:11;41.67;;;21.90;;
6255;SDS011;3161;48.794;9.784;2024-01-30T12:45:41;29.63;;;16.83;;
6255;SDS011;3161;48.794;9.784;2024-01-30T12:48:08;32.20;;;14.50;;
6255;SDS011;3161;48.794;9.784;2024-01-30T12:50:36;21.13;;;9.30;;
6255;SDS011;3161;48.794;9.784;2024-01-30T12:53:03;11.53;;;5.27;;
6255;SDS011;3161;48.794;9.784;2024-01-30T12:55:31;9.80;;;4.67;;
6255;SDS011;3161;48.794;9.784;2024-01-30T12:57:59;7.77;;;4.43;;
6255;SDS011;3161;48.794;9.784;2024-01-30T13:00:27;5.17;;;3.73;;
6255;SDS011;3161;48.794;9.784;2024-01-30T13:02:54;8.87;;;4.37;;
6255;SDS011;3161;48.794;9.784;2024-01-30T13:05:22;13.87;;;5.53;;
6255;SDS011;3161;48.794;9.784;2024-01-30T13:07:50;14.17;;;4.70;;
6255;SDS011;3161;48.794;9.784;2024-01-30T13:10:19;9.40;;;3.63;;
6255;SDS011;3161;48.794;9.784;2024-01-30T13:12:47;11.27;;;2.60;;
6255;SDS011;3161;48.794;9.784;2024-01-30T13:15:14;4.80;;;2.87;;
6255;SDS011;3161;48.794;9.784;2024-01-30T13:17:42;7.97;;;4.17;;
6255;SDS011;3161;48.794;9.784;2024-01-30T13:20:11;9.40;;;3.90;;
6255;SDS011;3161;48.794;9.784;2024-01-30T13:22:40;11.53;;;3.13;;
6255;SDS011;3161;48.794;9.784;2024-01-30T13:25:08;9.40;;;4.00;;
6255;SDS011;3161;48.794;9.784;2024-01-30T13:27:36;12.50;;;4.90;;
6255;SDS011;3161;48.794;9.784;2024-01-30T13:30:04;8.47;;;3.53;;
6255;SDS011;3161;48.794;9.784;2024-01-30T13:32:34;7.13;;;2.80;;
6255;SDS011;3161;48.794;9.784;2024-01-30T13:35:01;8.43;;;4.03;;
6255;SDS011;3161;48.794;9.784;2024-01-30T13:37:29;8.70;;;4.53;;
6255;SDS011;3161;48.794;9.784;2024-01-30T13:39:57;7.87;;;4.03;;
6255;SDS011;3161;48.794;9.784;2024-01-30T13:42:24;8.70;;;3.57;;
6255;SDS011;3161;48.794;9.784;2024-01-30T13:44:52;6.97;;;3.30;;
6255;SDS011;3161;48.794;9.784;2024-01-30T13:47:20;6.00;;;3.10;;
6255;SDS011;3161;48.794;9.784;2024-01-30T13:49:47;5.77;;;2.87;;
6255;SDS011;3161;48.794;9.784;2024-01-30T13:52:15;5.77;;;3.37;;
6255;SDS011;3161;48.794;9.784;2024-01-30T13:54:43;5.20;;;3.00;;
6255;SDS011;3161;48.794;9.784;2024-01-30T13:57:10;5.67;;;2.73;;
6255;SDS011;3161;48.794;9.784;2024-01-30T13:59:38;10.83;;;3.80;;
6255;SDS011;3161;48.794;9.784;2024-01-30T14:02:05;8.70;;;2.80;;
6255;SDS011;3161;48.794;9.784;2024-01-30T14:04:34;17.03;;;3.10;;
6255;SDS011;3161;48.794;9.784;2024-01-30T14:07:03;7.67;;;2.80;;
6255;SDS011;3161;48.794;9.784;2024-01-30T14:09:32;8.07;;;3.20;;
6255;SDS011;3161;48.794;9.784;2024-01-30T14:12:00;14.97;;;4.67;;
6255;SDS011;3161;48.794;9.784;2024-01-30T14:14:27;23.87;;;11.53;;
6255;SDS011;3161;48.794;9.784;2024-01-30T14:16:55;19.10;;;11.10;;
6255;SDS011;3161;48.794;9.784;2024-01-30T14:19:22;22.53;;;9.63;;
6255;SDS011;3161;48.794;9.784;2024-01-30T14:21:50;28.47;;;9.20;;
6255;SDS011;3161;48.794;9.784;2024-01-30T14:24:17;21.73;;;6.73;;
6255;SDS011;3161;48.794;9.784;2024-01-30T14:26:45;23.13;;;7.83;;
6255;SDS011;3161;48.794;9.784;2024-01-30T14:29:12;14.60;;;6.17;;
6255;SDS011;3161;48.794;9.784;2024-01-30T14:31:40;29.60;;;13.50;;
6255;SDS011;3161;48.794;9.784;2024-01-30T14:34:07;29.20;;;9.00;;
6255;SDS011;3161;48.794;9.784;2024-01-30T14:36:36;13.13;;;7.13;;
6255;SDS011;3161;48.794;9.784;2024-01-30T14:39:04;11.57;;;5.70;;
6255;SDS011;3161;48.794;9.784;2024-01-30T14:41:33;9.37;;;4.70;;
6255;SDS011;3161;48.794;9.784;2024-01-30T14:44:00;7.83;;;4.97;;
6255;SDS011;3161;48.794;9.784;2024-01-30T14:46:28;10.93;;;6.40;;
6255;SDS011;3161;48.794;9.784;2024-01-30T14:48:56;11.30;;;6.47;;
6255;SDS011;3161;48.794;9.784;2024-01-30T14:51:25;30.17;;;18.00;;
6255;SDS011;3161;48.794;9.784;2024-01-30T14:53:52;27.40;;;15.43;;
6255;SDS011;3161;48.794;9.784;2024-01-30T14:56:20;31.43;;;15.43;;
6255;SDS011;3161;48.794;9.784;2024-01-30T14:58:47;24.67;;;14.50;;
6255;SDS011;3161;48.794;9.784;2024-01-30T15:01:15;22.73;;;13.27;;
6255;SDS011;3161;48.794;9.784;2024-01-30T15:03:44;19.93;;;11.93;;
6255;SDS011;3161;48.794;9.784;2024-01-30T15:06:12;20.80;;;10.57;;
6255;SDS011;3161;48.794;9.784;2024-01-30T15:08:40;13.93;;;8.43;;
6255;SDS011;3161;48.794;9.784;2024-01-30T15:11:07;11.43;;;5.50;;